Santa Cruz, CA

9:34 PM PDT on September 20, 2014 (GMT -0700)
Reid-Hillview | Change Station
CLOSE
Current Station
Airport
Location: San Jose Reid,
Elevation: 135 ft
Nearby Weather Stations

Elev 135 ft 37.33 °N, 121.82 °W | Updated 46 minutes ago

Overcast
Overcast
72 °F
Feels Like 72 °F
N
9
Wind Variable Wind from West

Today
High -- | Low -- °F
--% Chance of Precip.
Yesterday
High -- | Low -- °F
Precip. -- in
6:54 AM 7:07 PM
Waning Crescent, 9% visible
Pressure 29.95 in
Visibility 10.0 miles
Clouds Scattered Clouds 10000 ft
Dew Point 61 °F
Humidity 69%
Rainfall 0.00 in
Snow Depth 0 in , 1 in , 1 in
UV 0 out of 12
Pollen 4.00 out of 12
Air Quality Not available.
Flu Activity Not available.
METAR KRHV 210348Z 28008KT 10SM SCT100 22/16 A2995

More Conditions Fewer Conditions

Pressure 29.95 in
Visibility 10.0 miles
Clouds Scattered Clouds 10000 ft
Dew Point 61 °F
Humidity 69%
Rainfall 0.00 in
Snow Depth 0 in , 1 in , 1 in
UV 0 out of 12
Pollen 4.00 out of 12
Air Quality Not available.
Flu Activity Not available.
METAR KRHV 210348Z 28008KT 10SM SCT100 22/16 A2995

More Conditions Fewer Conditions

10-Day Weather Forecast

Almanac

Astronomy

Sep. 20, 2014 Rise Set
Actual Time 6:54 AM PDT 7:07 PM PDT
Civil Twilight 6:28 AM PDT 7:33 PM PDT
Nautical Twilight 5:58 AM PDT 8:04 PM PDT
Astronomical Twilight 5:27 AM PDT 8:34 PM PDT
Moon 3:42 AM PDT (9/20) 5:11 PM PDT (9/20)
Length of Visible Light 13h 05m
Length of Day
12h 13m
Tomorrow will be 2m 20s shorter.
Waning Crescent, 9% of the Moon is Illuminated
Sep 21
Waning Crescent
Sep 24
New
Oct 1
First Quarter
Oct 8
Full
Oct 15
Last Quarter

Yesterday's Extremes

State Highs State Lows

Community

WunderPhotos

Upload Photos

1,755,081 photos uploaded!

Nearby

Snow Depth

Station Depth Elevation
Tahoe City Cross 0 in 6750 ft
Burnside Lake 1 in 8139 ft
Echo Peak 1 in 7800 ft
Forestdale Creek 0 in 8029 ft
Spratt Creek 1 in 6200 ft

Earthquake Activity

City Distance Mag. Time & Date
Cloverdale, California 136 miles 2.5 9:15 PM PDT
2014-09-20
Livermore, California 51 miles 2.6 3:37 AM PDT
2014-09-19
The Geysers, California 128 miles 2.5 11:29 PM PDT
2014-09-17
Minimum magnitude displayed is 2.5.

Coastal Water Temperatures

Place Temperature
Monterey, CA 63.0 °F
Redwood City, CA 73.0 °F

Nearby Weather Stations